Portada
METAR-TAF:

METAR-TAF

Aeropuertos :

Tenerife Sur, España

Aeropuerto de Tenerife Sur

latitud: 28-03N, longitud: 016-34W, altitud: 64 m

Observación

El informe se hizo hace 44 minutos, a las 07:30 UTC
Viento 9 kt del noreste
Temperatura 19°C
Humedad 64%
Presión 1018 hPa
Visibilidad 10 km o más
Escasas nubes a una altura de 3800 ft

METAR: GCTS 170730Z 05009KT 9999 FEW038 19/12 Q1018 NOSIG

Hora: 09:14 (08:14 UTC)

Pronóstico

El informe se hizo hace 6 horas y 14 minutos, a las 02:00 UTC
Pronóstico válido del 17 a las 03 UTC al 18 a las 03 UTC
Viento 5 kt del norte-noreste
Visibilidad 10 km o más
Escasas nubes a una altura de 5000 ft
Evolucionando progresivamente
del 17 a las 09 UTC al 17 a las 11 UTC
Viento 18 kt del este

TAF: GCTS 170200Z 1703/1803 02005KT 9999 FEW050 TX24/1714Z TN16/1706Z BECMG 1709/1711 09018KT

Observaciones y pronósticos meteorológicos de más de 4000 aeropuertos (mensajes METAR y TAF).

Los puntos amarillos y rojos representan las estaciones disponibles.

Ponga el ratón en el punto deseado para ver el nombre de la estación.

Haga clic para ver las observaciones y los pronósticos meteorológicos.

Para cambiar el mapa : haga clic en los botones verdes con una cruz de color negro para hacer un zoom, en el botón verde con un guión para alejar o en las flechas verdes para mapas adyacentes.


METAR-TAF: